Time,TemperatureF,DewpointF,PressureIn,WindDirection,WindDirectionDegrees,WindSpeedMPH,WindSpeedGustMPH,Humidity,HourlyPrecipIn,Conditions,Clouds,dailyrainin,SoftwareType,DateUTC
2013-05-15 00:00:00,55.4,46.2,30.06,SSW,209,3.0,3.0,71,0.00,,CLR,-99.99,VWS V12.06,2013-05-15 04:00:00,
2013-05-15 00:02:00,53.4,44.2,30.05,NW,322,0.0,3.0,71,0.00,,CLR,-99.99,VWS V12.06,2013-05-15 04:02:00,
2013-05-15 00:30:00,55.9,45.9,30.06,SW,223,3.0,4.0,69,0.00,,CLR,-99.99,VWS V12.06,2013-05-15 04:30:00,
2013-05-15 00:32:00,53.1,44.7,30.05,NW,320,4.0,4.0,73,0.00,,CLR,-99.99,VWS V12.06,2013-05-15 04:32:00,
2013-05-15 01:00:00,56.1,46.1,30.05,SW,214,6.0,6.0,69,0.00,,CLR,-99.99,VWS V12.06,2013-05-15 05:00:00,
2013-05-15 01:30:00,59.3,49.1,30.04,SW,234,9.0,10.0,69,0.00,,CLR,-99.99,VWS V12.06,2013-05-15 05:30:00,
2013-05-15 02:00:00,63.2,52.1,30.02,SW,235,17.0,23.0,67,0.00,,CLR,-99.99,VWS V12.06,2013-05-15 06:00:00,
2013-05-15 02:30:00,63.6,52.5,30.01,WNW,286,17.0,17.0,67,0.00,,CLR,-99.99,VWS V12.06,2013-05-15 06:30:00,
2013-05-15 03:00:00,63.8,53.0,30.00,West,259,11.0,19.0,68,0.00,,CLR,-99.99,VWS V12.06,2013-05-15 07:00:00,
2013-05-15 03:30:00,63.9,53.1,29.99,WNW,290,12.0,25.0,68,0.00,,CLR,-99.99,VWS V12.06,2013-05-15 07:30:00,
2013-05-15 04:00:00,63.3,53.4,29.99,WNW,289,13.0,14.0,70,0.00,,CLR,-99.99,VWS V12.06,2013-05-15 08:00:00,
2013-05-15 04:30:00,63.4,53.5,30.00,WSW,246,9.0,11.0,70,0.00,,CLR,-99.99,VWS V12.06,2013-05-15 08:30:00,
2013-05-15 05:00:00,63.3,53.4,30.00,WSW,249,11.0,11.0,70,0.00,,CLR,-99.99,VWS V12.06,2013-05-15 09:00:00,
2013-05-15 05:30:00,63.5,53.5,30.01,West,264,10.0,10.0,70,0.00,,CLR,-99.99,VWS V12.06,2013-05-15 09:30:00,
2013-05-15 06:00:00,64.5,53.3,30.02,West,263,10.0,22.0,67,0.00,,CLR,-99.99,VWS V12.06,2013-05-15 10:00:00,
2013-05-15 06:30:00,64.6,53.4,30.01,WSW,243,5.0,14.0,67,0.00,,CLR,-99.99,VWS V12.06,2013-05-15 10:30:00,
2013-05-15 07:02:00,60.7,51.2,30.01,WNW,292,18.0,26.0,71,0.00,,CLR,-99.99,VWS V12.06,2013-05-15 11:02:00,
2013-05-15 07:30:00,65.0,53.4,30.02,West,267,9.0,9.0,66,0.00,,CLR,-99.99,VWS V12.06,2013-05-15 11:30:00,
2013-05-15 08:00:00,66.3,53.8,30.02,North,5,15.0,15.0,64,0.00,,CLR,-99.99,VWS V12.06,2013-05-15 12:00:00,
2013-05-15 08:30:00,66.2,52.8,30.02,West,274,6.0,9.0,62,0.00,,CLR,-99.99,VWS V12.06,2013-05-15 12:30:00,
2013-05-15 09:00:00,68.2,53.8,30.03,West,261,6.0,7.0,60,0.00,,CLR,-99.99,VWS V12.06,2013-05-15 13:00:00,
2013-05-15 09:30:00,70.0,54.1,30.03,WNW,292,7.0,7.0,57,0.00,,CLR,-99.99,VWS V12.06,2013-05-15 13:30:00,
2013-05-15 10:00:00,72.1,54.0,30.04,NW,310,16.0,16.0,53,0.00,,CLR,-99.99,VWS V12.06,2013-05-15 14:00:00,
2013-05-15 10:30:00,72.8,53.1,30.04,WNW,300,9.0,9.0,50,0.00,,CLR,-99.99,VWS V12.06,2013-05-15 14:30:00,
2013-05-15 11:00:00,75.0,54.0,30.04,NNW,333,1.0,2.0,48,0.00,,CLR,-99.99,VWS V12.06,2013-05-15 15:00:00,
2013-05-15 11:30:00,75.4,54.4,30.04,SW,232,5.0,7.0,48,0.00,,CLR,-99.99,VWS V12.06,2013-05-15 15:30:00,
2013-05-15 12:00:00,75.9,53.1,30.05,West,278,7.0,12.0,45,0.00,,CLR,-99.99,VWS V12.06,2013-05-15 16:00:00,
2013-05-15 12:30:00,77.5,55.7,30.03,NE,46,2.0,2.0,47,0.00,,CLR,-99.99,VWS V12.06,2013-05-15 16:30:00,
2013-05-15 13:02:00,72.1,52.5,30.00,West,265,14.0,25.0,50,0.00,,CLR,-99.99,VWS V12.06,2013-05-15 17:02:00,
2013-05-15 13:30:00,79.7,56.5,30.02,NW,306,11.0,19.0,45,0.00,,CLR,-99.99,VWS V12.06,2013-05-15 17:30:00,
2013-05-15 14:00:00,81.2,56.0,30.00,West,268,1.0,5.0,42,0.00,,CLR,-99.99,VWS V12.06,2013-05-15 18:00:00,
2013-05-15 14:32:00,77.4,52.5,29.98,NW,321,10.0,10.0,42,0.00,,CLR,-99.99,VWS V12.06,2013-05-15 18:32:00,
2013-05-15 15:00:00,81.4,52.7,29.98,SW,229,5.0,5.0,37,0.00,,CLR,-99.99,VWS V12.06,2013-05-15 19:00:00,
2013-05-15 15:30:00,81.1,52.4,29.98,West,269,3.0,4.0,37,0.00,,CLR,-99.99,VWS V12.06,2013-05-15 19:30:00,
2013-05-15 16:00:00,82.2,52.6,29.96,West,265,14.0,14.0,36,0.00,,CLR,-99.99,VWS V12.06,2013-05-15 20:00:00,
2013-05-15 16:32:00,78.7,51.0,29.94,NE,46,3.0,11.0,38,0.00,,CLR,-99.99,VWS V12.06,2013-05-15 20:32:00,
2013-05-15 17:00:00,80.1,51.5,29.95,WSW,238,6.0,9.0,37,0.00,,CLR,-99.99,VWS V12.06,2013-05-15 21:00:00,
2013-05-15 17:32:00,77.5,49.2,29.94,NW,319,12.0,15.0,37,0.00,,CLR,-99.99,VWS V12.06,2013-05-15 21:32:00,
2013-05-15 18:00:00,78.1,49.0,29.95,West,267,6.0,9.0,36,0.00,,CLR,-99.99,VWS V12.06,2013-05-15 22:00:00,
2013-05-15 18:32:00,76.3,50.2,29.94,NE,49,4.0,11.0,40,0.00,,CLR,-99.99,VWS V12.06,2013-05-15 22:32:00,
2013-05-15 19:00:00,76.2,46.6,29.94,West,272,13.0,13.0,35,0.00,,CLR,-99.99,VWS V12.06,2013-05-15 23:00:00,
2013-05-15 19:30:00,74.3,47.8,29.93,WNW,287,9.0,14.0,39,0.00,,CLR,-99.99,VWS V12.06,2013-05-15 23:30:00,
2013-05-15 20:00:00,73.3,48.2,29.94,WNW,283,10.0,16.0,41,0.00,,CLR,-99.99,VWS V12.06,2013-05-16 00:00:00,
2013-05-15 20:30:00,72.0,49.5,29.93,WSW,252,6.0,6.0,45,0.00,,CLR,-99.99,VWS V12.06,2013-05-16 00:30:00,
2013-05-15 21:02:00,67.9,51.6,29.93,NW,319,4.0,4.0,56,0.00,,CLR,-99.99,VWS V12.06,2013-05-16 01:02:00,
2013-05-15 21:30:00,70.9,50.2,29.93,WSW,258,6.0,9.0,48,0.00,,CLR,-99.99,VWS V12.06,2013-05-16 01:30:00,
2013-05-15 22:02:00,70.6,51.6,29.91,WNW,294,9.0,19.0,51,0.00,,CLR,-99.99,VWS V12.06,2013-05-16 02:02:00,
2013-05-15 22:30:00,69.9,51.5,29.94,West,273,7.0,7.0,52,0.00,,CLR,-99.99,VWS V12.06,2013-05-16 02:30:00,
2013-05-15 23:02:00,69.1,52.3,29.91,WNW,288,23.0,23.0,55,0.00,,CLR,-99.99,VWS V12.06,2013-05-16 03:02:00,
2013-05-15 23:30:00,68.9,52.6,29.93,NW,315,18.0,18.0,56,0.00,,CLR,-99.99,VWS V12.06,2013-05-16 03:30:00,